UKON/NLV METAR and TAF weather

Enter ICAO airport designator
Station Type Date Time Source
UKON METAR 2019/12/12 15:00 UTC NOAA

UKON 121500Z 08007MPS 0650 0600NW -DZ FG VV002 01/01 Q1015 R04/090075 NOSIG


Station Type Date Time Source
UKON Decoded METAR 2019/12/12 15:00 UTC NOAA

Mykolaiv, Ukraine (UKON) 47-03-29N 031-55-15E
Dec 12, 2019 - 10:00 AM EST / 2019.12.12 1500 UTC
Wind: from the E (080 degrees) at 16 MPH (14 KT):0
Visibility: less than 1 mile:0
Sky conditions: obscured
Weather: light drizzle; fog
Temperature: 33 F (1 C)
Windchill: 23 F (-5 C):1
Dew Point: 33 F (1 C)
Relative Humidity: 100%
Pressure (altimeter): 29.97 in. Hg (1015 hPa)
ob: UKON 121500Z 08007MPS 0650 0600NW -DZ FG VV002 01/01 Q1015 R04/090075 NOSIG
cycle: 15

Station Type Date Time Source
UKON TAF 2018/11/06 15:06 UTC NOAA

TAF
AMD TAF
AMD UKON 061502Z 0615/0724 CNL

Example: see airport list